Time;durP1;ratioP1;P1;durP2;ratioP2;P2;SDS_P1;SDS_P2;PMS_P1;PMS_P2;Temp;Humidity;BMP_temperature;BMP_pressure;BME280_temperature;BME280_humidity;BME280_pressure;Samples;Min_cycle;Max_cycle;Signal;HPM_P1;HPM_P2
2022/01/01 00:01:04;;;;;;;14.98;6.95;;;;;;;10.45;81.25;98982.53;4932156;29;20488;-51
2022/01/01 00:03:30;;;;;;;13.38;6.53;;;;;;;10.36;81.85;98976.97;4931536;29;20039;-49
2022/01/01 00:05:55;;;;;;;11.55;5.45;;;;;;;10.36;81.94;98982.22;4931997;29;20030;-49
2022/01/01 00:08:21;;;;;;;13.02;6.40;;;;;;;10.52;81.14;98983.03;4931658;29;20043;-48
2022/01/01 00:10:46;;;;;;;11.50;6.07;;;;;;;10.37;81.51;98978.66;4932738;29;20024;-48
2022/01/01 00:13:11;;;;;;;13.30;6.13;;;;;;;10.35;81.41;98970.03;4931385;29;20035;-47
2022/01/01 00:15:37;;;;;;;12.73;6.38;;;;;;;10.38;81.81;98973.31;4931995;29;20381;-50
2022/01/01 00:18:02;;;;;;;14.88;7.28;;;;;;;10.39;81.37;98980.28;4931789;29;20153;-50
2022/01/01 00:20:28;;;;;;;12.98;7.63;;;;;;;10.29;81.97;98975.59;4931440;29;20059;-49
2022/01/01 00:22:53;;;;;;;18.58;7.90;;;;;;;10.45;81.40;98992.19;4931804;29;20059;-51
2022/01/01 00:25:18;;;;;;;15.60;7.80;;;;;;;10.51;80.86;98986.59;4931780;29;20087;-48
2022/01/01 00:27:44;;;;;;;18.33;7.38;;;;;;;10.50;81.19;98986.69;4932759;29;20407;-47
2022/01/01 00:30:10;;;;;;;15.00;7.30;;;;;;;10.43;81.57;98988.81;4935134;29;20032;-49
2022/01/01 00:32:38;;;;;;;13.73;6.90;;;;;;;10.39;81.88;98984.66;4934850;29;20090;-47
2022/01/01 00:35:04;;;;;;;13.85;7.00;;;;;;;10.43;81.29;98988.81;4934462;29;20120;-48
2022/01/01 00:37:30;;;;;;;12.95;6.72;;;;;;;10.40;81.47;98992.44;4934516;29;20137;-50
2022/01/01 00:39:55;;;;;;;13.93;7.50;;;;;;;10.15;82.75;98995.53;4935413;29;20480;-47
2022/01/01 00:42:22;;;;;;;13.40;6.72;;;;;;;10.33;82.05;98990.25;4934268;29;20039;-49
2022/01/01 00:44:47;;;;;;;13.52;7.55;;;;;;;10.30;82.11;98993.03;4932938;29;20028;-51
2022/01/01 00:47:12;;;;;;;12.75;6.72;;;;;;;10.37;81.32;98987.38;4935127;29;20024;-48
2022/01/01 00:49:38;;;;;;;12.18;6.15;;;;;;;10.34;81.36;98997.19;4934237;29;20478;-49
2022/01/01 00:52:03;;;;;;;12.95;6.63;;;;;;;10.50;81.34;98995.41;4934627;29;20043;-51
2022/01/01 00:54:29;;;;;;;11.02;5.65;;;;;;;10.25;81.64;99005.50;4934093;29;20472;-51
2022/01/01 00:56:54;;;;;;;13.10;6.95;;;;;;;10.38;82.00;99011.81;4934853;29;20031;-48
2022/01/01 00:59:20;;;;;;;10.38;6.00;;;;;;;10.44;81.83;99003.63;4933993;29;20047;-48
2022/01/01 01:01:46;;;;;;;13.30;6.40;;;;;;;10.62;80.27;98997.34;4935163;29;20499;-47
2022/01/01 01:04:12;;;;;;;12.27;6.65;;;;;;;10.66;80.06;99006.72;4934851;29;20036;-50
2022/01/01 01:06:37;;;;;;;12.20;5.75;;;;;;;10.72;80.18;99009.94;4933849;29;20062;-50
2022/01/01 01:09:03;;;;;;;13.23;6.38;;;;;;;10.73;79.53;99009.00;4934103;29;20024;-49
2022/01/01 01:11:28;;;;;;;10.32;5.47;;;;;;;10.67;79.97;99018.94;4934566;29;20027;-50
2022/01/01 01:14:07;;;;;;;11.23;5.57;;;;;;;10.49;80.58;99019.09;4933533;29;20024;-50
2022/01/01 01:16:32;;;;;;;10.23;5.38;;;;;;;10.36;81.58;99034.66;4934582;29;20035;-47
2022/01/01 01:18:58;;;;;;;11.38;5.30;;;;;;;10.28;81.21;99026.34;4934955;29;20684;-47
2022/01/01 01:21:23;;;;;;;10.13;5.28;;;;;;;10.32;80.82;99027.88;4934793;29;20031;-48
2022/01/01 01:23:49;;;;;;;13.52;6.07;;;;;;;10.12;81.82;99021.91;4935984;29;20035;-48
2022/01/01 20:27:05;;;;;;;60.92;31.38;;;;;;;5.21;86.01;98950.47;5536559;23;20039;-46
2022/01/01 20:29:30;;;;;;;54.42;27.85;;;;;;;5.20;85.99;98941.00;4938952;29;20039;-46
2022/01/01 20:31:57;;;;;;;32.17;18.17;;;;;;;5.16;86.23;98939.38;4923104;29;20023;-46
2022/01/01 20:34:22;;;;;;;28.40;17.48;;;;;;;5.13;85.87;98940.34;4937983;29;20031;-46
2022/01/01 20:36:47;;;;;;;39.47;20.00;;;;;;;5.09;86.27;98925.75;4932335;29;20562;-50
2022/01/01 20:39:13;;;;;;;50.22;24.80;;;;;;;5.02;86.30;98926.00;4937577;29;20046;-50
2022/01/01 20:41:39;;;;;;;56.90;28.35;;;;;;;5.14;86.52;98921.25;4904673;29;20024;-47
2022/01/01 20:44:04;;;;;;;60.85;29.17;;;;;;;5.01;86.89;98919.97;4918636;29;20040;-45
2022/01/01 20:46:30;;;;;;;48.65;25.90;;;;;;;4.98;87.30;98920.06;4937045;29;20105;-49
2022/01/01 20:48:55;;;;;;;83.05;38.65;;;;;;;5.00;86.37;98923.47;4936144;29;20043;-49
2022/01/01 20:51:22;;;;;;;59.65;28.10;;;;;;;5.05;86.33;98923.31;4937055;29;20034;-48
2022/01/01 20:53:47;;;;;;;37.85;21.38;;;;;;;5.10;86.33;98914.47;4935962;29;20036;-48
2022/01/01 20:56:13;;;;;;;52.22;28.17;;;;;;;5.15;86.49;98922.09;4932382;29;20554;-47
2022/01/01 20:58:38;;;;;;;28.60;16.48;;;;;;;5.10;86.25;98906.66;4936865;29;20043;-48
2022/01/01 21:01:03;;;;;;;35.58;18.55;;;;;;;5.31;85.63;98907.63;4937141;29;20028;-50
2022/01/01 21:03:30;;;;;;;34.30;17.60;;;;;;;5.38;85.73;98913.47;4924552;29;20396;-48
2022/01/01 21:05:58;;;;;;;35.80;18.83;;;;;;;5.23;86.05;98913.13;4935630;29;20131;-48
2022/01/01 21:08:25;;;;;;;26.10;15.18;;;;;;;5.28;86.10;98907.75;4933491;29;20547;-48
2022/01/01 21:10:50;;;;;;;23.67;12.95;;;;;;;5.27;86.42;98910.41;4917838;29;20062;-47
2022/01/01 21:13:16;;;;;;;26.63;15.30;;;;;;;5.20;86.09;98904.59;4917642;29;20111;-47
2022/01/01 21:15:41;;;;;;;32.90;17.63;;;;;;;5.12;86.45;98901.38;4912498;29;20028;-49
2022/01/01 21:18:07;;;;;;;45.33;20.63;;;;;;;5.17;86.50;98904.69;4919596;29;20032;-47
2022/01/01 21:20:33;;;;;;;41.03;21.92;;;;;;;5.24;86.53;98900.97;4936481;29;20032;-46
2022/01/01 21:23:01;;;;;;;30.13;15.73;;;;;;;5.12;86.30;98912.63;4930187;29;20032;-46
2022/01/01 21:25:26;;;;;;;25.95;13.95;;;;;;;5.16;86.34;98901.25;4934930;29;20024;-49
2022/01/01 21:27:51;;;;;;;23.98;13.88;;;;;;;5.08;86.54;98895.44;4934832;29;20106;-47
2022/01/01 21:30:17;;;;;;;22.65;13.35;;;;;;;5.21;86.24;98898.47;4936624;29;20036;-47
2022/01/01 21:32:45;;;;;;;24.95;13.35;;;;;;;5.22;85.90;98888.00;4936352;29;20027;-49
